Terminal Aerodrome Forecast
Issued by NWS Springfield, MO

Home | Current Version | Previous Version | Text Only | Print | Product List | Glossary On
Versions: 1 2 3 4 5 6 7 8 9 10 11 12 13 14 15 16 17 18 19 20 21 22
000
FTUS43 KSGF 270500
TAFSGF
TAF
KSGF 270520Z 2706/2806 VRB03KT P6SM OVC100
     FM270800 VRB03KT P6SM OVC040
      TEMPO 2709/2712 -RASN OVC025
     FM271200 02010KT P6SM BKN025
      TEMPO 2712/2714 -RASN OVC015
     FM271500 36010KT P6SM BKN050 BKN250
     FM271900 35010KT P6SM BKN100=

USA.gov is the U.S. government's official web portal to all federal, state and local government web resources and services.